^^
Meteo Knjazevac Station Historical Data
Daily Summary for May 21, 2022 Units:  Metric    English   Both
Daily Weekly Monthly Yearly Custom
  High: Low: Average:
Temperature: 31.8 °C 5.4 °C 20 °C
Dew Point: 16.6 °C 2.2 °C 9.6 °C
Humidity: 81% 35% 55%
Wind Speed: 16.1km/h 0km/h 5.1km/h
Wind Gust: 27.4km/h - -
Wind- - WSW
Pressure: 1021.9 hPa 1015.5 hPa -
Precipitation: 0 mm    
Historical Graphs
 
 
Tabular Data for May 21, 2022
Time Temperature Dew Point Pressure Wind Wind Speed Wind Gust Humidity Rainfall Rate (Hourly) solar Conditions
00:00 9.8 °C 3.1 °C 1021.9 hPa Calm   4.8 km/h 63% 0 mm 0 W/m2
00:10 9.4 °C 2.9 °C 1021.6 hPa West 3.2 km/h 4.8 km/h 64% 0 mm 0 W/m2
00:20 8.8 °C 2.6 °C 1021.6 hPa West 3.2 km/h 6.4 km/h 65% 0 mm 0 W/m2
00:30 8.5 °C 2.7 °C 1021.6 hPa West 4.8 km/h 8 km/h 67% 0 mm 0 W/m2
00:40 8.5 °C 2.7 °C 1021.6 hPa West 3.2 km/h 8 km/h 67% 0 mm 0 W/m2
00:50 8.5 °C 2.7 °C 1021.6 hPa West 8 km/h 9.7 km/h 67% 0 mm 0 W/m2
01:00 8.5 °C 2.7 °C 1021.6 hPa WNW 3.2 km/h 9.7 km/h 67% 0 mm 0 W/m2
01:10 8.4 °C 2.6 °C 1021.6 hPa NW 1.6 km/h 6.4 km/h 67% 0 mm 0 W/m2
01:20 8 °C 2.4 °C 1021.6 hPa West 3.2 km/h 4.8 km/h 68% 0 mm 0 W/m2
01:30 7.6 °C 2.3 °C 1021.2 hPa WSW 1.6 km/h 6.4 km/h 69% 0 mm 0 W/m2
01:40 7.2 °C 2.5 °C 1021.2 hPa West 3.2 km/h 6.4 km/h 72% 0 mm 0 W/m2
01:50 7.2 °C 2.5 °C 1021.2 hPa WNW 1.6 km/h 6.4 km/h 72% 0 mm 0 W/m2
02:00 7.2 °C 2.5 °C 1021.2 hPa West 4.8 km/h 6.4 km/h 72% 0 mm 0 W/m2
02:10 7.1 °C 2.4 °C 1021.2 hPa WNW 3.2 km/h 8 km/h 72% 0 mm 0 W/m2
02:20 7 °C 2.5 °C 1021.2 hPa NW 1.6 km/h 6.4 km/h 73% 0 mm 0 W/m2
02:30 6.8 °C 2.3 °C 1020.9 hPa WNW 1.6 km/h 6.4 km/h 73% 0 mm 0 W/m2
02:40 6.5 °C 2.2 °C 1020.9 hPa WSW 3.2 km/h 9.7 km/h 74% 0 mm 0 W/m2
02:50 6.4 °C 2.3 °C 1020.9 hPa WNW 4.8 km/h 9.7 km/h 75% 0 mm 0 W/m2
03:00 6.5 °C 2.2 °C 1020.9 hPa West 3.2 km/h 8 km/h 74% 0 mm 0 W/m2
03:10 6.4 °C 2.3 °C 1020.9 hPa West 4.8 km/h 8 km/h 75% 0 mm 0 W/m2
03:20 6.3 °C 2.2 °C 1020.9 hPa West 3.2 km/h 8 km/h 75% 0 mm 0 W/m2
03:30 6.2 °C 2.4 °C 1020.9 hPa West 1.6 km/h 6.4 km/h 77% 0 mm 0 W/m2
03:40 6.2 °C 2.4 °C 1020.5 hPa West 4.8 km/h 8 km/h 77% 0 mm 0 W/m2
03:50 6.1 °C 2.4 °C 1020.5 hPa West 1.6 km/h 8 km/h 77% 0 mm 0 W/m2
04:00 6 °C 2.3 °C 1020.5 hPa West 3.2 km/h 8 km/h 77% 0 mm 0 W/m2
04:10 6 °C 2.4 °C 1020.5 hPa WNW 3.2 km/h 8 km/h 78% 0 mm 0 W/m2
04:20 5.9 °C 2.3 °C 1020.5 hPa WNW 3.2 km/h 8 km/h 78% 0 mm 0 W/m2
04:30 5.9 °C 2.3 °C 1020.5 hPa WNW 1.6 km/h 6.4 km/h 78% 0 mm 0 W/m2
04:40 5.8 °C 2.3 °C 1020.5 hPa West 3.2 km/h 8 km/h 78% 0 mm 0 W/m2
04:50 5.7 °C 2.3 °C 1020.5 hPa West 3.2 km/h 8 km/h 79% 0 mm 0 W/m2
05:00 5.7 °C 2.3 °C 1020.5 hPa WNW 3.2 km/h 9.7 km/h 79% 0 mm 3 W/m2
05:10 5.7 °C 2.3 °C 1020.5 hPa WNW 1.6 km/h 6.4 km/h 79% 0 mm 8 W/m2
05:20 5.6 °C 2.4 °C 1020.5 hPa WNW 1.6 km/h 8 km/h 80% 0 mm 14 W/m2
05:30 5.5 °C 2.3 °C 1020.5 hPa WNW 1.6 km/h 4.8 km/h 80% 0 mm 20 W/m2
05:40 5.4 °C 2.2 °C 1020.5 hPa West 1.6 km/h 4.8 km/h 80% 0 mm 29 W/m2
05:50 5.5 °C 2.3 °C 1020.5 hPa WNW 3.2 km/h 4.8 km/h 80% 0 mm 40 W/m2
06:00 5.6 °C 2.6 °C 1020.5 hPa WNW 1.6 km/h 8 km/h 81% 0 mm 44 W/m2
06:10 5.9 °C 2.9 °C 1020.9 hPa WNW 1.6 km/h 4.8 km/h 81% 0 mm 68 W/m2
06:20 6.1 °C 3.1 °C 1020.9 hPa West 1.6 km/h 4.8 km/h 81% 0 mm 114 W/m2
06:30 6.4 °C 3.4 °C 1020.9 hPa West 3.2 km/h 4.8 km/h 81% 0 mm 147 W/m2
06:40 6.9 °C 3.7 °C 1020.5 hPa West 3.2 km/h 6.4 km/h 80% 0 mm 154 W/m2
06:50 7.5 °C 4.1 °C 1020.5 hPa NW 1.6 km/h 4.8 km/h 79% 0 mm 182 W/m2
07:00 8.2 °C 4.6 °C 1020.5 hPa Calm   4.8 km/h 78% 0 mm 215 W/m2
07:10 8.8 °C 5.3 °C 1020.5 hPa Calm   6.4 km/h 79% 0 mm 269 W/m2
07:20 9.5 °C 5.7 °C 1020.5 hPa Calm   3.2 km/h 77% 0 mm 300 W/m2
07:30 10.2 °C 5.9 °C 1020.2 hPa West 1.6 km/h 4.8 km/h 75% 0 mm 331 W/m2
07:40 11 °C 6.3 °C 1020.2 hPa NW 3.2 km/h 6.4 km/h 73% 0 mm 366 W/m2
07:50 11.9 °C 7 °C 1020.2 hPa WNW 1.6 km/h 3.2 km/h 72% 0 mm 396 W/m2
08:00 12.8 °C 7.3 °C 1019.9 hPa Calm   3.2 km/h 69% 0 mm 429 W/m2
08:10 13.8 °C 7.8 °C 1019.9 hPa North 3.2 km/h 8 km/h 67% 0 mm 466 W/m2
08:20 15.5 °C 8.7 °C 1019.9 hPa SE 4.8 km/h 9.7 km/h 64% 0 mm 504 W/m2
08:30 17.4 °C 9.1 °C 1019.5 hPa Calm   11.3 km/h 58% 0 mm 540 W/m2
08:40 18.8 °C 9.6 °C 1019.5 hPa SSE 3.2 km/h 8 km/h 55% 0 mm 573 W/m2
08:50 19.9 °C 10.1 °C 1019.5 hPa SE 3.2 km/h 8 km/h 53% 0 mm 603 W/m2
09:00 20.9 °C 10.7 °C 1019.5 hPa Calm   9.7 km/h 52% 0 mm 635 W/m2
09:10 21.9 °C 10.7 °C 1019.5 hPa SSE 3.2 km/h 9.7 km/h 49% 0 mm 662 W/m2
09:20 22.7 °C 11.4 °C 1019.5 hPa SE 3.2 km/h 11.3 km/h 49% 0 mm 695 W/m2
09:30 23.4 °C 11.4 °C 1019.2 hPa ESE 4.8 km/h 12.9 km/h 47% 0 mm 729 W/m2
09:40 24.3 °C 11.6 °C 1019.2 hPa SSE 3.2 km/h 8 km/h 45% 0 mm 748 W/m2
09:50 24.9 °C 10.4 °C 1019.2 hPa SW 4.8 km/h 14.5 km/h 40% 0 mm 731 W/m2
10:00 25.2 °C 9.9 °C 1019.2 hPa SW 12.9 km/h 19.3 km/h 38% 0 mm 795 W/m2
10:10 25.5 °C 10.1 °C 1018.8 hPa SW 9.7 km/h 19.3 km/h 38% 0 mm 815 W/m2
10:20 25.9 °C 10.1 °C 1018.8 hPa SW 11.3 km/h 19.3 km/h 37% 0 mm 839 W/m2
10:30 26.3 °C 10.8 °C 1018.8 hPa SW 8 km/h 16.1 km/h 38% 0 mm 845 W/m2
10:40 26.8 °C 10.9 °C 1018.8 hPa SW 8 km/h 12.9 km/h 37% 0 mm 317 W/m2
10:50 27.1 °C 11.6 °C 1018.8 hPa SW 3.2 km/h 11.3 km/h 38% 0 mm 883 W/m2
11:00 27.6 °C 12 °C 1018.8 hPa SSW 4.8 km/h 11.3 km/h 38% 0 mm 892 W/m2
11:10 27.8 °C 11.8 °C 1018.5 hPa SSE 4.8 km/h 14.5 km/h 37% 0 mm 196 W/m2
11:20 28.2 °C 12.9 °C 1018.2 hPa South 8 km/h 12.9 km/h 39% 0 mm 889 W/m2
11:30 28.4 °C 13.1 °C 1018.2 hPa SW 1.6 km/h 11.3 km/h 39% 0 mm 726 W/m2
11:40 28.8 °C 13.1 °C 1017.8 hPa SW 9.7 km/h 19.3 km/h 38% 0 mm 532 W/m2
11:50 28.9 °C 12.7 °C 1017.8 hPa South 4.8 km/h 19.3 km/h 37% 0 mm 947 W/m2
12:00 29.2 °C 13 °C 1017.8 hPa SSW 9.7 km/h 19.3 km/h 37% 0 mm 921 W/m2
12:10 29.4 °C 12.3 °C 1017.8 hPa SW 9.7 km/h 14.5 km/h 35% 0 mm 929 W/m2
12:20 29.5 °C 13.3 °C 1017.8 hPa SSW 4.8 km/h 14.5 km/h 37% 0 mm 957 W/m2
12:30 29.8 °C 12.7 °C 1017.5 hPa SW 4.8 km/h 12.9 km/h 35% 0 mm 957 W/m2
12:40 30.1 °C 12.9 °C 1017.5 hPa West 9.7 km/h 19.3 km/h 35% 0 mm 511 W/m2
12:50 30.4 °C 13.2 °C 1017.5 hPa West 8 km/h 14.5 km/h 35% 0 mm 706 W/m2
13:00 30.7 °C 13.5 °C 1017.5 hPa West 8 km/h 14.5 km/h 35% 0 mm 337 W/m2
13:10 30.8 °C 14 °C 1017.2 hPa West 3.2 km/h 14.5 km/h 36% 0 mm 941 W/m2
13:20 30.9 °C 13.7 °C 1017.2 hPa WSW 4.8 km/h 12.9 km/h 35% 0 mm 933 W/m2
13:30 31.1 °C 13.8 °C 1017.2 hPa West 4.8 km/h 14.5 km/h 35% 0 mm 924 W/m2
13:40 30.9 °C 13.7 °C 1017.2 hPa WSW 9.7 km/h 19.3 km/h 35% 0 mm 914 W/m2
13:50 31 °C 13.7 °C 1016.8 hPa WSW 9.7 km/h 17.7 km/h 35% 0 mm 902 W/m2
14:00 31.3 °C 14.9 °C 1016.8 hPa WSW 4.8 km/h 17.7 km/h 37% 0 mm 888 W/m2
14:10 31.5 °C 15.1 °C 1016.5 hPa West 9.7 km/h 22.5 km/h 37% 0 mm 873 W/m2
14:20 31.6 °C 15.1 °C 1016.5 hPa SW 3.2 km/h 16.1 km/h 37% 0 mm 857 W/m2
14:30 31.8 °C 15.3 °C 1016.5 hPa WSW 8 km/h 19.3 km/h 37% 0 mm 839 W/m2
14:40 31.8 °C 14.4 °C 1016.5 hPa WNW 11.3 km/h 19.3 km/h 35% 0 mm 820 W/m2
14:50 31.7 °C 14.3 °C 1016.1 hPa West 4.8 km/h 19.3 km/h 35% 0 mm 800 W/m2
15:00 31.7 °C 15.2 °C 1016.1 hPa West 4.8 km/h 17.7 km/h 37% 0 mm 762 W/m2
15:10 31.8 °C 14.4 °C 1016.1 hPa West 9.7 km/h 19.3 km/h 35% 0 mm 757 W/m2
15:20 31.8 °C 14.4 °C 1016.1 hPa West 11.3 km/h 22.5 km/h 35% 0 mm 726 W/m2
15:30 31.7 °C 15.2 °C 1016.1 hPa West 12.9 km/h 20.9 km/h 37% 0 mm 695 W/m2
15:40 31.6 °C 15.1 °C 1016.1 hPa West 16.1 km/h 24.1 km/h 37% 0 mm 668 W/m2
15:50 31.5 °C 15.1 °C 1015.8 hPa West 11.3 km/h 24.1 km/h 37% 0 mm 639 W/m2
16:00 31.4 °C 15.4 °C 1015.8 hPa WSW 11.3 km/h 24.1 km/h 38% 0 mm 613 W/m2
16:10 31.4 °C 15.3 °C 1015.8 hPa SW 12.9 km/h 20.9 km/h 38% 0 mm 575 W/m2
16:20 31.3 °C 15.3 °C 1015.8 hPa WSW 11.3 km/h 22.5 km/h 38% 0 mm 553 W/m2
16:30 31.4 °C 15.8 °C 1015.8 hPa WSW 9.7 km/h 19.3 km/h 39% 0 mm 520 W/m2
16:40 31.3 °C 15.3 °C 1015.5 hPa West 8 km/h 17.7 km/h 38% 0 mm 486 W/m2
16:50 31.3 °C 15.7 °C 1015.5 hPa West 11.3 km/h 20.9 km/h 39% 0 mm 451 W/m2
17:00 31.3 °C 15.7 °C 1015.5 hPa West 8 km/h 20.9 km/h 39% 0 mm 417 W/m2
17:10 31.2 °C 15.6 °C 1015.5 hPa West 9.7 km/h 20.9 km/h 39% 0 mm 384 W/m2
17:20 31 °C 15.8 °C 1015.5 hPa WSW 11.3 km/h 25.7 km/h 40% 0 mm 349 W/m2
17:30 30.8 °C 15.2 °C 1015.5 hPa West 11.3 km/h 27.4 km/h 39% 0 mm 317 W/m2
17:40 30.8 °C 15.7 °C 1015.5 hPa NNW 9.7 km/h 16.1 km/h 40% 0 mm 283 W/m2
17:50 30.6 °C 16.2 °C 1015.5 hPa West 3.2 km/h 20.9 km/h 42% 0 mm 252 W/m2
18:00 30.5 °C 16.1 °C 1015.5 hPa West 8 km/h 14.5 km/h 42% 0 mm 224 W/m2
18:10 30.6 °C 16.6 °C 1015.5 hPa WNW 4.8 km/h 12.9 km/h 43% 0 mm 195 W/m2
18:20 30.2 °C 16.2 °C 1015.5 hPa WNW 9.7 km/h 22.5 km/h 43% 0 mm 169 W/m2
18:30 29.8 °C 15.9 °C 1015.5 hPa West 8 km/h 17.7 km/h 43% 0 mm 135 W/m2
18:40 29.5 °C 15.9 °C 1015.5 hPa West 9.7 km/h 19.3 km/h 44% 0 mm 120 W/m2
18:50 29.3 °C 15.8 °C 1015.5 hPa West 8 km/h 14.5 km/h 44% 0 mm 100 W/m2
19:00 29.1 °C 15.9 °C 1015.5 hPa WNW 4.8 km/h 14.5 km/h 45% 0 mm 65 W/m2
19:10 28.8 °C 16.4 °C 1015.5 hPa West 3.2 km/h 9.7 km/h 47% 0 mm 39 W/m2
19:20 28.4 °C 16.3 °C 1015.5 hPa West 3.2 km/h 8 km/h 48% 0 mm 24 W/m2
19:30 27.9 °C 16.2 °C 1015.5 hPa West 1.6 km/h 4.8 km/h 49% 0 mm 17 W/m2
19:40 27.4 °C 16.1 °C 1015.5 hPa West 1.6 km/h 4.8 km/h 50% 0 mm 11 W/m2
19:50 26.9 °C 15.9 °C 1015.5 hPa WSW 3.2 km/h 6.4 km/h 51% 0 mm 4 W/m2
20:00 26.4 °C 16 °C 1015.5 hPa West 3.2 km/h 8 km/h 53% 0 mm 0 W/m2
20:10 26 °C 15.9 °C 1015.5 hPa WNW 8 km/h 11.3 km/h 54% 0 mm 0 W/m2
20:30 25.4 °C 15.7 °C 1015.8 hPa West 3.2 km/h 8 km/h 55% 0 mm 0 W/m2
20:40 25.1 °C 15.7 °C 1015.8 hPa NW 1.6 km/h 8 km/h 56% 0 mm 0 W/m2
Knjazevac, Serbia
Compliments of Weather Underground - 2 mb